createdAt,value
2018-12-15T00:00:46.712Z,0.20
2018-12-15T00:03:14.255Z,0.20
2018-12-15T00:05:41.815Z,0.20
2018-12-15T00:08:09.354Z,0.20
2018-12-15T00:10:36.910Z,0.20
2018-12-15T00:13:04.448Z,0.20
2018-12-15T00:15:32.052Z,0.20
2018-12-15T00:17:59.590Z,0.20
2018-12-15T00:20:27.146Z,0.10
2018-12-15T00:22:54.687Z,0.20
2018-12-15T00:25:22.245Z,0.10
2018-12-15T00:27:49.793Z,0.20
2018-12-15T00:30:17.355Z,0.10
2018-12-15T00:32:44.895Z,0.10
2018-12-15T00:35:12.450Z,0.10
2018-12-15T00:37:39.993Z,0.20
2018-12-15T00:40:07.643Z,0.10
2018-12-15T00:42:35.243Z,0.10
2018-12-15T00:45:02.891Z,0.10
2018-12-15T00:47:30.431Z,0.10
2018-12-15T00:49:58.000Z,0.10
2018-12-15T00:52:25.538Z,0.10
2018-12-15T00:54:53.103Z,0.10
2018-12-15T00:57:20.646Z,0.10
2018-12-15T00:59:48.206Z,0.10
2018-12-15T01:02:15.742Z,0.10
2018-12-15T01:04:43.319Z,0.10
2018-12-15T01:07:10.863Z,0.10
2018-12-15T01:09:38.425Z,0.10
2018-12-15T01:12:05.968Z,0.10
2018-12-15T01:14:33.526Z,0.10
2018-12-15T01:17:01.066Z,0.10
2018-12-15T01:19:28.656Z,0.10
2018-12-15T01:21:56.322Z,0.10
2018-12-15T01:24:23.879Z,0.10
2018-12-15T01:26:51.414Z,0.10
2018-12-15T01:29:18.954Z,0.00
2018-12-15T01:31:46.517Z,0.00
2018-12-15T01:34:14.057Z,0.00
2018-12-15T01:36:41.623Z,0.00
2018-12-15T01:39:09.163Z,0.00
2018-12-15T01:41:36.721Z,0.10
2018-12-15T01:44:04.303Z,0.00
2018-12-15T01:46:31.907Z,0.00
2018-12-15T01:48:59.447Z,0.00
2018-12-15T01:51:27.016Z,0.00
2018-12-15T01:53:54.595Z,0.00
2018-12-15T01:56:22.159Z,0.00
2018-12-15T01:58:49.784Z,0.00
2018-12-15T02:01:17.342Z,0.00
2018-12-15T02:03:44.886Z,0.00
2018-12-15T02:06:12.499Z,0.00
2018-12-15T02:08:40.083Z,0.00
2018-12-15T02:11:07.686Z,0.00
2018-12-15T02:13:35.226Z,0.00
2018-12-15T02:16:02.882Z,0.00
2018-12-15T02:18:30.422Z,0.00
2018-12-15T02:20:57.987Z,0.00
2018-12-15T02:23:25.527Z,0.00
2018-12-15T02:25:53.095Z,0.00
2018-12-15T02:28:20.635Z,0.00
2018-12-15T02:30:48.202Z,0.00
2018-12-15T02:33:15.739Z,0.00
2018-12-15T02:35:43.303Z,0.00
2018-12-15T02:38:10.843Z,-0.10
2018-12-15T02:40:38.419Z,-0.10
2018-12-15T02:43:05.968Z,-0.10
2018-12-15T02:45:33.530Z,-0.10
2018-12-15T02:48:01.120Z,-0.10
2018-12-15T02:50:28.781Z,-0.10
2018-12-15T02:52:56.337Z,-0.10
2018-12-15T02:55:23.908Z,-0.10
2018-12-15T02:57:51.474Z,-0.10
2018-12-15T03:00:19.087Z,-0.10
2018-12-15T03:02:46.635Z,-0.10
2018-12-15T03:05:14.203Z,-0.10
2018-12-15T03:07:41.753Z,-0.10
2018-12-15T03:10:09.421Z,-0.10
2018-12-15T03:12:36.974Z,-0.10
2018-12-15T03:15:05.123Z,-0.10
2018-12-15T03:17:32.696Z,-0.10
2018-12-15T03:20:01.037Z,-0.10
2018-12-15T03:22:28.659Z,-0.10
2018-12-15T03:24:56.211Z,-0.10
2018-12-15T03:27:23.774Z,-0.20
2018-12-15T03:29:51.372Z,-0.10
2018-12-15T03:32:18.946Z,-0.20
2018-12-15T03:34:46.509Z,-0.20
2018-12-15T03:37:14.080Z,-0.20
2018-12-15T03:39:41.628Z,-0.20
2018-12-15T03:42:09.197Z,-0.20
2018-12-15T03:44:36.758Z,-0.20
2018-12-15T03:47:04.327Z,-0.20
2018-12-15T03:49:31.891Z,-0.20
2018-12-15T03:51:59.471Z,-0.20
2018-12-15T03:54:27.024Z,-0.20
2018-12-15T03:56:54.596Z,-0.20
2018-12-15T03:59:22.197Z,-0.20
2018-12-15T04:01:49.783Z,-0.20
2018-12-15T04:04:17.329Z,-0.20
2018-12-15T04:06:44.905Z,-0.20
2018-12-15T04:09:12.458Z,-0.20
2018-12-15T04:11:40.028Z,-0.20
2018-12-15T04:14:07.585Z,-0.20
2018-12-15T04:16:35.152Z,-0.20
2018-12-15T04:19:02.715Z,-0.20
2018-12-15T04:21:30.279Z,-0.20
2018-12-15T04:23:57.834Z,-0.20
2018-12-15T04:26:25.403Z,-0.20
2018-12-15T04:28:52.952Z,-0.20
2018-12-15T04:31:20.515Z,-0.20
2018-12-15T04:33:48.067Z,-0.20
2018-12-15T04:36:16.516Z,-0.20
2018-12-15T04:38:44.064Z,-0.20
2018-12-15T04:41:11.637Z,-0.20
2018-12-15T04:43:39.179Z,-0.20
2018-12-15T04:46:06.788Z,-0.20
2018-12-15T04:48:34.335Z,-0.20
2018-12-15T04:51:01.947Z,-0.20
2018-12-15T04:53:29.506Z,-0.20
2018-12-15T04:55:57.088Z,-0.20
2018-12-15T04:58:24.659Z,-0.20
2018-12-15T05:00:52.215Z,-0.20
2018-12-15T05:03:19.781Z,-0.20
2018-12-15T05:05:47.332Z,-0.20
2018-12-15T05:08:14.901Z,-0.20
2018-12-15T05:10:42.447Z,-0.20
2018-12-15T05:13:10.013Z,-0.20
2018-12-15T05:15:37.559Z,-0.20
2018-12-15T05:18:05.128Z,-0.20
2018-12-15T05:20:32.678Z,-0.20
2018-12-15T05:23:00.252Z,-0.20
2018-12-15T05:25:27.799Z,-0.20
2018-12-15T05:27:55.370Z,-0.20
2018-12-15T05:30:22.929Z,-0.20
2018-12-15T05:32:50.500Z,-0.20
2018-12-15T05:35:18.139Z,-0.20
2018-12-15T05:37:45.716Z,-0.20
2018-12-15T05:40:13.322Z,-0.20
2018-12-15T05:42:40.888Z,-0.20
2018-12-15T05:45:08.443Z,-0.20
2018-12-15T05:47:36.011Z,-0.20
2018-12-15T05:50:04.747Z,-0.20
2018-12-15T05:52:32.371Z,-0.20
2018-12-15T05:55:01.031Z,-0.20
2018-12-15T05:57:28.592Z,-0.20
2018-12-15T05:59:56.142Z,-0.20
2018-12-15T06:02:24.151Z,-0.20
2018-12-15T06:04:52.247Z,-0.20
2018-12-15T06:07:19.815Z,-0.20
2018-12-15T06:09:47.367Z,-0.20
2018-12-15T06:12:14.930Z,-0.20
2018-12-15T06:14:42.481Z,-0.20
2018-12-15T06:17:10.059Z,-0.20
2018-12-15T06:19:37.607Z,-0.20
2018-12-15T06:22:05.223Z,-0.20
2018-12-15T06:24:32.778Z,-0.20
2018-12-15T06:27:00.346Z,-0.20
2018-12-15T06:29:27.895Z,-0.20
2018-12-15T06:31:55.457Z,-0.20
2018-12-15T06:34:23.064Z,-0.20
2018-12-15T06:36:50.636Z,-0.20
2018-12-15T06:39:18.188Z,-0.20
2018-12-15T06:41:47.425Z,-0.20
2018-12-15T06:44:14.980Z,-0.20
2018-12-15T06:46:42.583Z,-0.20
2018-12-15T06:49:10.149Z,-0.20
2018-12-15T06:51:37.698Z,-0.20
2018-12-15T06:54:05.323Z,-0.20
2018-12-15T06:56:32.871Z,-0.20
2018-12-15T06:59:00.477Z,-0.20
2018-12-15T07:01:28.025Z,-0.20
2018-12-15T07:03:55.608Z,-0.20
2018-12-15T07:06:23.162Z,-0.20
2018-12-15T07:08:50.775Z,-0.20
2018-12-15T07:11:18.327Z,-0.20
2018-12-15T07:13:45.922Z,-0.20
2018-12-15T07:16:13.467Z,-0.20
2018-12-15T07:18:44.753Z,-0.20
2018-12-15T07:21:10.599Z,-0.20
2018-12-15T07:23:38.163Z,-0.20
2018-12-15T07:26:05.714Z,-0.20
2018-12-15T07:28:33.282Z,-0.20
2018-12-15T07:31:00.828Z,-0.20
2018-12-15T07:33:28.393Z,-0.30
2018-12-15T07:35:55.998Z,-0.30
2018-12-15T07:38:23.613Z,-0.30
2018-12-15T07:40:51.203Z,-0.30
2018-12-15T07:43:18.772Z,-0.30
2018-12-15T07:45:46.315Z,-0.30
2018-12-15T07:48:13.879Z,-0.30
2018-12-15T07:50:41.428Z,-0.30
2018-12-15T07:53:09.000Z,-0.30
2018-12-15T07:55:36.599Z,-0.30
2018-12-15T07:58:04.167Z,-0.30
2018-12-15T08:00:31.760Z,-0.30
2018-12-15T08:02:59.327Z,-0.30
2018-12-15T08:05:26.866Z,-0.30
2018-12-15T08:07:54.480Z,-0.30
2018-12-15T08:10:23.011Z,-0.30
2018-12-15T08:12:52.907Z,-0.30
2018-12-15T08:15:20.447Z,-0.30
2018-12-15T08:17:48.012Z,-0.30
2018-12-15T08:20:15.559Z,-0.30
2018-12-15T08:22:43.132Z,-0.30
2018-12-15T08:25:10.682Z,-0.30
2018-12-15T08:27:38.244Z,-0.30
2018-12-15T08:30:08.176Z,-0.30
2018-12-15T08:32:35.719Z,-0.30
2018-12-15T08:35:03.971Z,-0.30
2018-12-15T08:37:31.521Z,-0.30
2018-12-15T08:39:59.085Z,-0.30
2018-12-15T08:42:26.636Z,-0.30
2018-12-15T08:44:54.199Z,-0.30
2018-12-15T08:47:21.787Z,-0.30
2018-12-15T08:49:49.361Z,-0.30
2018-12-15T08:52:16.948Z,-0.30
2018-12-15T08:54:44.511Z,-0.30
2018-12-15T08:57:13.999Z,-0.30
2018-12-15T08:59:41.568Z,-0.30
2018-12-15T09:02:09.115Z,-0.30
2018-12-15T09:04:36.684Z,-0.20
2018-12-15T09:07:04.319Z,-0.20
2018-12-15T09:09:31.892Z,-0.20
2018-12-15T09:11:59.445Z,-0.20
2018-12-15T09:14:27.015Z,-0.20
2018-12-15T09:16:54.607Z,-0.20
2018-12-15T09:19:22.178Z,-0.20
2018-12-15T09:21:49.767Z,-0.20
2018-12-15T09:24:17.330Z,-0.20
2018-12-15T09:26:44.879Z,-0.20
2018-12-15T09:29:12.446Z,-0.20
2018-12-15T09:31:39.992Z,-0.20
2018-12-15T09:34:07.563Z,-0.20
2018-12-15T09:36:35.110Z,-0.20
2018-12-15T09:39:02.763Z,-0.20
2018-12-15T09:41:30.310Z,-0.20
2018-12-15T09:43:57.873Z,-0.20
2018-12-15T09:46:25.424Z,-0.20
2018-12-15T09:48:53.036Z,-0.20
2018-12-15T09:51:20.580Z,-0.20
2018-12-15T09:53:48.155Z,-0.10
2018-12-15T09:56:16.047Z,-0.10
2018-12-15T09:58:43.618Z,-0.10
2018-12-15T10:01:11.173Z,-0.10
2018-12-15T10:03:38.778Z,0.00
2018-12-15T10:06:06.713Z,0.00
2018-12-15T10:08:34.276Z,0.00
2018-12-15T10:11:01.843Z,0.00
2018-12-15T10:13:29.412Z,0.10
2018-12-15T10:15:57.003Z,0.10
2018-12-15T10:18:24.568Z,0.10
2018-12-15T10:20:52.211Z,0.10
2018-12-15T10:23:19.799Z,0.10
2018-12-15T10:25:47.364Z,0.10
2018-12-15T10:28:14.913Z,0.10
2018-12-15T10:30:48.043Z,0.10
2018-12-15T10:33:15.678Z,0.10
2018-12-15T10:35:43.238Z,0.10
2018-12-15T10:38:10.774Z,0.20
2018-12-15T10:40:38.342Z,0.10
2018-12-15T10:43:05.892Z,0.20
2018-12-15T10:45:33.468Z,0.20
2018-12-15T10:48:01.015Z,0.20
2018-12-15T10:50:28.576Z,0.20
2018-12-15T10:52:56.169Z,0.20
2018-12-15T10:55:23.736Z,0.20
2018-12-15T10:57:51.280Z,0.20
2018-12-15T11:00:23.804Z,0.20
2018-12-15T11:02:51.346Z,0.20
2018-12-15T11:05:18.953Z,0.20
2018-12-15T11:07:46.495Z,0.20
2018-12-15T11:10:14.060Z,0.20
2018-12-15T11:12:41.603Z,0.20
2018-12-15T11:15:09.254Z,0.20
2018-12-15T11:17:36.792Z,0.20
2018-12-15T11:20:05.139Z,0.20
2018-12-15T11:22:33.985Z,0.20
2018-12-15T11:25:01.908Z,0.20
2018-12-15T11:27:29.459Z,0.20
2018-12-15T11:29:57.023Z,0.20
2018-12-15T11:32:24.572Z,0.20
2018-12-15T11:34:52.151Z,0.20
2018-12-15T11:37:20.508Z,0.20
2018-12-15T11:39:48.079Z,0.20
2018-12-15T11:42:15.627Z,0.20
2018-12-15T11:44:43.196Z,0.20
2018-12-15T11:47:10.744Z,0.20
2018-12-15T11:49:43.598Z,0.20
2018-12-15T11:52:07.878Z,0.20
2018-12-15T11:54:35.443Z,0.20
2018-12-15T11:57:02.982Z,0.20
2018-12-15T11:59:30.548Z,0.30
2018-12-15T12:01:58.107Z,0.30
2018-12-15T12:04:25.675Z,0.30
2018-12-15T12:06:53.215Z,0.30
2018-12-15T12:09:20.779Z,0.30
2018-12-15T12:11:48.325Z,0.30
2018-12-15T12:14:15.864Z,0.30
2018-12-15T12:16:43.427Z,0.30
2018-12-15T12:19:10.971Z,0.30
2018-12-15T12:21:38.575Z,0.40
2018-12-15T12:24:06.127Z,0.40
2018-12-15T12:26:33.687Z,0.40
2018-12-15T12:29:01.241Z,0.40
2018-12-15T12:31:28.891Z,0.40
2018-12-15T12:33:56.449Z,0.40
2018-12-15T12:36:24.016Z,0.40
2018-12-15T12:38:52.214Z,0.40
2018-12-15T12:41:19.961Z,0.40
2018-12-15T12:43:47.502Z,0.40
2018-12-15T12:46:15.058Z,0.40
2018-12-15T12:48:42.608Z,0.40
2018-12-15T12:51:10.168Z,0.40
2018-12-15T12:53:37.711Z,0.40
2018-12-15T12:56:05.318Z,0.50
2018-12-15T12:58:32.867Z,0.50
2018-12-15T13:01:00.484Z,0.50
2018-12-15T13:03:28.038Z,0.50
2018-12-15T13:05:55.599Z,0.50
2018-12-15T13:08:23.287Z,0.50
2018-12-15T13:10:50.866Z,0.50
2018-12-15T13:13:18.412Z,0.50
2018-12-15T13:15:45.988Z,0.50
2018-12-15T13:18:13.535Z,0.50
2018-12-15T13:20:41.095Z,0.50
2018-12-15T13:23:08.644Z,0.50
2018-12-15T13:25:36.203Z,0.50
2018-12-15T13:28:03.749Z,0.50
2018-12-15T13:30:31.311Z,0.50
2018-12-15T13:32:58.895Z,0.40
2018-12-15T13:35:26.512Z,0.40
2018-12-15T13:37:54.059Z,0.40
2018-12-15T13:40:21.628Z,0.40
2018-12-15T13:42:49.175Z,0.40
2018-12-15T13:45:16.827Z,0.40
2018-12-15T13:47:44.378Z,0.40
2018-12-15T13:50:11.948Z,0.40
2018-12-15T13:52:39.557Z,0.40
2018-12-15T13:55:07.286Z,0.40
2018-12-15T13:57:34.847Z,0.40
2018-12-15T14:00:02.435Z,0.40
2018-12-15T14:02:29.998Z,0.40
2018-12-15T14:04:57.539Z,0.40
2018-12-15T14:07:25.100Z,0.40
2018-12-15T14:09:52.732Z,0.40
2018-12-15T14:12:20.333Z,0.40
2018-12-15T14:14:47.879Z,0.40
2018-12-15T14:17:15.444Z,0.40
2018-12-15T14:19:42.983Z,0.40
2018-12-15T14:22:10.547Z,0.40
2018-12-15T14:24:38.088Z,0.40
2018-12-15T14:27:05.655Z,0.40
2018-12-15T14:29:33.243Z,0.30
2018-12-15T14:32:00.801Z,0.30
2018-12-15T14:34:28.343Z,0.30
2018-12-15T14:36:55.956Z,0.30
2018-12-15T14:39:23.504Z,0.30
2018-12-15T14:41:51.059Z,0.30
2018-12-15T14:44:18.611Z,0.30
2018-12-15T14:46:46.185Z,0.30
2018-12-15T14:49:13.731Z,0.30
2018-12-15T14:51:41.300Z,0.30
2018-12-15T14:54:08.839Z,0.30
2018-12-15T14:56:36.394Z,0.30
2018-12-15T14:59:04.050Z,0.30
2018-12-15T15:01:31.684Z,0.20
2018-12-15T15:03:59.224Z,0.20
2018-12-15T15:06:26.786Z,0.20
2018-12-15T15:08:54.427Z,0.20
2018-12-15T15:11:21.991Z,0.20
2018-12-15T15:13:49.535Z,0.20
2018-12-15T15:16:17.166Z,0.20
2018-12-15T15:18:44.775Z,0.20
2018-12-15T15:21:12.335Z,0.20
2018-12-15T15:23:39.880Z,0.20
2018-12-15T15:26:07.449Z,0.20
2018-12-15T15:28:34.989Z,0.20
2018-12-15T15:31:02.559Z,0.10
2018-12-15T15:33:30.103Z,0.10
2018-12-15T15:35:57.675Z,0.10
2018-12-15T15:38:25.263Z,0.10
2018-12-15T15:40:52.812Z,0.10
2018-12-15T15:43:20.612Z,0.10
2018-12-15T15:45:48.198Z,0.10
2018-12-15T15:48:15.836Z,0.10
2018-12-15T15:50:43.445Z,0.10
2018-12-15T15:53:11.087Z,0.10
2018-12-15T15:55:38.716Z,0.10
2018-12-15T15:58:06.284Z,0.10
2018-12-15T16:00:33.826Z,0.10
2018-12-15T16:03:01.477Z,0.10
2018-12-15T16:05:29.023Z,0.00
2018-12-15T16:07:56.582Z,0.00
2018-12-15T16:10:24.134Z,0.00
2018-12-15T16:12:51.719Z,0.00
2018-12-15T16:15:19.259Z,0.00
2018-12-15T16:17:46.868Z,0.00
2018-12-15T16:20:14.457Z,0.00
2018-12-15T16:22:42.063Z,0.00
2018-12-15T16:25:09.707Z,0.00
2018-12-15T16:27:37.266Z,0.00
2018-12-15T16:30:06.899Z,0.00
2018-12-15T16:32:34.463Z,0.00
2018-12-15T16:35:02.008Z,0.00
2018-12-15T16:37:29.574Z,0.00
2018-12-15T16:39:57.119Z,0.00
2018-12-15T16:42:24.736Z,-0.10
2018-12-15T16:44:52.283Z,-0.10
2018-12-15T16:47:19.851Z,-0.10
2018-12-15T16:49:47.399Z,-0.10
2018-12-15T16:52:15.309Z,-0.10
2018-12-15T16:54:43.100Z,-0.10
2018-12-15T16:57:10.671Z,-0.10
2018-12-15T16:59:38.220Z,-0.10
2018-12-15T17:02:05.967Z,-0.10
2018-12-15T17:04:33.512Z,-0.10
2018-12-15T17:07:01.085Z,-0.10
2018-12-15T17:09:28.723Z,-0.10
2018-12-15T17:11:56.291Z,-0.10
2018-12-15T17:14:23.836Z,-0.10
2018-12-15T17:16:51.463Z,-0.10
2018-12-15T17:19:19.018Z,-0.10
2018-12-15T17:21:46.588Z,-0.10
2018-12-15T17:24:14.135Z,-0.10
2018-12-15T17:26:41.694Z,-0.10
2018-12-15T17:29:09.269Z,-0.10
2018-12-15T17:31:36.815Z,-0.10
2018-12-15T17:34:04.427Z,-0.10
2018-12-15T17:36:32.021Z,-0.10
2018-12-15T17:38:59.740Z,-0.10
2018-12-15T17:41:27.282Z,-0.10
2018-12-15T17:43:54.847Z,-0.10
2018-12-15T17:46:22.391Z,-0.10
2018-12-15T17:48:49.959Z,-0.10
2018-12-15T17:51:17.560Z,-0.20
2018-12-15T17:53:45.127Z,-0.10
2018-12-15T17:56:12.723Z,-0.10
2018-12-15T17:58:40.291Z,-0.10
2018-12-15T18:01:07.844Z,-0.10
2018-12-15T18:03:35.458Z,-0.10
2018-12-15T18:06:03.095Z,-0.10
2018-12-15T18:08:30.668Z,-0.20
2018-12-15T18:10:58.343Z,-0.20
2018-12-15T18:13:25.911Z,-0.20
2018-12-15T18:15:53.467Z,-0.10
2018-12-15T18:18:21.042Z,-0.20
2018-12-15T18:20:48.600Z,-0.20
2018-12-15T18:23:16.173Z,-0.20
2018-12-15T18:25:43.721Z,-0.20
2018-12-15T18:28:11.290Z,-0.20
2018-12-15T18:30:38.836Z,-0.20
2018-12-15T18:33:06.443Z,-0.20
2018-12-15T18:35:33.995Z,-0.20
2018-12-15T18:38:01.561Z,-0.20
2018-12-15T18:40:29.122Z,-0.20
2018-12-15T18:42:56.695Z,-0.20
2018-12-15T18:45:24.238Z,-0.20
2018-12-15T18:47:51.811Z,-0.20
2018-12-15T18:50:19.358Z,-0.20
2018-12-15T18:52:46.923Z,-0.20
2018-12-15T18:55:14.473Z,-0.20
2018-12-15T18:57:42.080Z,-0.20
2018-12-15T19:00:09.715Z,-0.20
2018-12-15T19:02:37.288Z,-0.20
2018-12-15T19:05:05.083Z,-0.20
2018-12-15T19:07:32.676Z,-0.30
2018-12-15T19:10:00.236Z,-0.30
2018-12-15T19:12:28.986Z,-0.30
2018-12-15T19:14:56.560Z,-0.30
2018-12-15T19:17:24.111Z,-0.30
2018-12-15T19:19:51.723Z,-0.30
2018-12-15T19:22:19.316Z,-0.40
2018-12-15T19:24:46.935Z,-0.40
2018-12-15T19:27:14.520Z,-0.40
2018-12-15T19:29:42.135Z,-0.50
2018-12-15T19:32:09.689Z,-0.50
2018-12-15T19:34:37.300Z,-0.50
2018-12-15T19:37:04.868Z,-0.60
2018-12-15T19:39:32.447Z,-0.60
2018-12-15T19:42:00.011Z,-0.60
2018-12-15T19:44:27.669Z,-0.70
2018-12-15T19:46:55.224Z,-0.70
2018-12-15T19:49:22.791Z,-0.70
2018-12-15T19:51:50.348Z,-0.80
2018-12-15T19:54:17.911Z,-0.80
2018-12-15T19:56:45.459Z,-0.90
2018-12-15T19:59:13.778Z,-0.90
2018-12-15T20:01:41.471Z,-0.90
2018-12-15T20:04:09.039Z,-0.90
2018-12-15T20:06:36.640Z,-1.00
2018-12-15T20:09:06.815Z,-1.00
2018-12-15T20:11:34.367Z,-1.00
2018-12-15T20:14:01.940Z,-1.10
2018-12-15T20:16:29.494Z,-1.10
2018-12-15T20:18:57.056Z,-1.10
2018-12-15T20:21:24.608Z,-1.20
2018-12-15T20:23:52.175Z,-1.20
2018-12-15T20:26:19.818Z,-1.20
2018-12-15T20:28:47.388Z,-1.20
2018-12-15T20:31:14.939Z,-1.30
2018-12-15T20:33:42.551Z,-1.30
2018-12-15T20:36:10.136Z,-1.30
2018-12-15T20:38:37.709Z,-1.40
2018-12-15T20:41:05.310Z,-1.40
2018-12-15T20:43:32.919Z,-1.40
2018-12-15T20:46:00.466Z,-1.40
2018-12-15T20:48:28.028Z,-1.40
2018-12-15T20:50:55.578Z,-1.50
2018-12-15T20:53:23.197Z,-1.50
2018-12-15T20:55:50.747Z,-1.50
2018-12-15T20:58:18.287Z,-1.50
2018-12-15T21:00:45.858Z,-1.50
2018-12-15T21:03:13.450Z,-1.50
2018-12-15T21:05:41.019Z,-1.60
2018-12-15T21:08:08.567Z,-1.60
2018-12-15T21:10:36.134Z,-1.60
2018-12-15T21:13:03.732Z,-1.60
2018-12-15T21:15:33.304Z,-1.60
2018-12-15T21:18:00.852Z,-1.60
2018-12-15T21:20:28.420Z,-1.60
2018-12-15T21:22:56.021Z,-1.60
2018-12-15T21:25:23.590Z,-1.60
2018-12-15T21:27:51.141Z,-1.60
2018-12-15T21:30:18.728Z,-1.60
2018-12-15T21:32:46.323Z,-1.60
2018-12-15T21:35:13.897Z,-1.60
2018-12-15T21:37:41.493Z,-1.60
2018-12-15T21:40:09.155Z,-1.60
2018-12-15T21:42:36.699Z,-1.50
2018-12-15T21:45:04.758Z,-1.50
2018-12-15T21:47:32.312Z,-1.50
2018-12-15T21:49:59.892Z,-1.50
2018-12-15T21:52:27.444Z,-1.50
2018-12-15T21:54:55.012Z,-1.50
2018-12-15T21:57:22.569Z,-1.50
2018-12-15T21:59:50.135Z,-1.50
2018-12-15T22:02:17.688Z,-1.50
2018-12-15T22:04:45.304Z,-1.50
2018-12-15T22:07:12.998Z,-1.50
2018-12-15T22:09:40.563Z,-1.50
2018-12-15T22:12:08.156Z,-1.50
2018-12-15T22:14:35.723Z,-1.50
2018-12-15T22:17:03.326Z,-1.50
2018-12-15T22:19:30.898Z,-1.50
2018-12-15T22:22:02.895Z,-1.50
2018-12-15T22:24:28.057Z,-1.50
2018-12-15T22:26:55.615Z,-1.60
2018-12-15T22:29:23.187Z,-1.60
2018-12-15T22:31:50.788Z,-1.60
2018-12-15T22:34:18.483Z,-1.60
2018-12-15T22:36:46.028Z,-1.60
2018-12-15T22:39:13.595Z,-1.60
2018-12-15T22:41:41.190Z,-1.60
2018-12-15T22:44:08.748Z,-1.60
2018-12-15T22:46:36.315Z,-1.70
2018-12-15T22:49:03.869Z,-1.70
2018-12-15T22:51:31.439Z,-1.70
2018-12-15T22:53:58.991Z,-1.70
2018-12-15T22:56:26.556Z,-1.70
2018-12-15T22:58:54.148Z,-1.70
2018-12-15T23:01:21.762Z,-1.70
2018-12-15T23:03:49.595Z,-1.80
2018-12-15T23:06:17.164Z,-1.80
2018-12-15T23:08:44.756Z,-1.80
2018-12-15T23:11:12.319Z,-1.80
2018-12-15T23:13:39.872Z,-1.80
2018-12-15T23:16:07.443Z,-1.80
2018-12-15T23:18:34.998Z,-1.80
2018-12-15T23:21:02.572Z,-1.80
2018-12-15T23:23:30.121Z,-1.80
2018-12-15T23:25:57.700Z,-1.80
2018-12-15T23:28:25.257Z,-1.70
2018-12-15T23:30:52.826Z,-1.70
2018-12-15T23:33:20.374Z,-1.70
2018-12-15T23:35:47.939Z,-1.70
2018-12-15T23:38:15.487Z,-1.70
2018-12-15T23:40:43.092Z,-1.60
2018-12-15T23:43:10.638Z,-1.60
2018-12-15T23:45:38.203Z,-1.50
2018-12-15T23:48:05.757Z,-1.50
2018-12-15T23:50:33.326Z,-1.40
2018-12-15T23:53:00.877Z,-1.40
2018-12-15T23:55:28.444Z,-1.40
2018-12-15T23:57:55.984Z,-1.30
